Time;durP1;ratioP1;P1;durP2;ratioP2;P2;SDS_P1;SDS_P2;PMS_P1;PMS_P2;Temp;Humidity;BMP_temperature;BMP_pressure;BME280_temperature;BME280_humidity;BME280_pressure;Samples;Min_cycle;Max_cycle;Signal;HPM_P1;HPM_P2
2023/03/17 00:00:47;;;;;;;9.43;6.05;;;1.50;99.90;;;;;;4992811;28;20113;-51
2023/03/17 00:03:21;;;;;;;7.53;5.40;;;1.40;99.90;;;;;;4992954;28;20030;-50
2023/03/17 00:05:47;;;;;;;11.75;5.88;;;1.40;1.00;;;;;;4992953;28;20027;-48
2023/03/17 00:08:28;;;;;;;12.68;6.20;;;1.40;1.00;;;;;;4992780;28;20390;-51
2023/03/17 00:10:54;;;;;;;6.38;5.72;;;1.40;1.00;;;;;;4992718;28;20041;-51
2023/03/17 00:13:20;;;;;;;9.52;7.10;;;1.40;1.00;;;;;;4992885;28;20077;-50
2023/03/17 00:15:51;;;;;;;7.78;6.20;;;1.30;1.00;;;;;;4991407;28;20034;-52
2023/03/17 00:18:18;;;;;;;11.02;6.30;;;1.30;26.90;;;;;;4992843;28;20126;-50
2023/03/17 00:20:46;;;;;;;12.23;6.22;;;1.20;1.00;;;;;;4992550;28;20026;-49
2023/03/17 00:23:20;;;;;;;8.18;6.18;;;1.20;1.00;;;;;;4992623;28;20084;-54
2023/03/17 00:25:47;;;;;;;11.63;5.95;;;1.20;91.70;;;;;;4992580;28;20423;-52
2023/03/17 00:28:19;;;;;;;12.10;6.30;;;1.30;44.10;;;;;;4992380;28;20034;-49
2023/03/17 00:30:46;;;;;;;18.27;6.97;;;1.20;99.90;;;;;;4992540;28;20034;-49
2023/03/17 00:33:14;;;;;;;10.63;6.70;;;1.20;99.90;;;;;;4992368;28;20109;-53
2023/03/17 00:35:41;;;;;;;10.80;7.38;;;1.20;99.90;;;;;;4992481;28;20077;-48
2023/03/17 00:38:14;;;;;;;8.30;6.88;;;1.10;99.90;;;;;;4992442;28;20023;-49
2023/03/17 00:40:40;;;;;;;12.48;6.57;;;1.10;99.90;;;;;;4992397;28;20022;-49
2023/03/17 00:43:07;;;;;;;11.27;6.68;;;1.10;99.90;;;;;;4992370;28;20709;-48
2023/03/17 00:45:33;;;;;;;9.13;6.53;;;1.00;99.90;;;;;;4992267;28;20033;-49
2023/03/17 00:47:59;;;;;;;13.98;6.30;;;1.00;99.90;;;;;;4992370;28;20022;-50
2023/03/17 00:50:27;;;;;;;8.48;6.47;;;1.10;70.30;;;;;;4992451;28;20096;-50
2023/03/17 00:52:55;;;;;;;8.88;6.57;;;1.10;99.90;;;;;;4992169;28;20061;-50
2023/03/17 00:55:23;;;;;;;8.05;6.38;;;1.10;99.90;;;;;;4993076;28;20480;-52
2023/03/17 00:57:49;;;;;;;7.55;5.65;;;1.00;99.90;;;;;;4996281;28;20061;-48
2023/03/17 01:00:28;;;;;;;8.57;6.45;;;1.00;99.90;;;;;;4996364;28;20031;-50
2023/03/17 01:02:55;;;;;;;8.80;6.60;;;1.00;99.90;;;;;;4996227;28;20026;-51
2023/03/17 01:05:24;;;;;;;12.27;5.85;;;1.00;99.90;;;;;;4996314;28;20396;-49
2023/03/17 01:07:52;;;;;;;9.98;6.30;;;0.90;99.90;;;;;;4996038;28;20030;-48
2023/03/17 01:10:25;;;;;;;13.82;6.53;;;0.90;99.90;;;;;;4996271;28;20050;-52
2023/03/17 01:12:52;;;;;;;9.20;6.90;;;0.90;99.90;;;;;;4995951;28;20027;-48
2023/03/17 01:15:20;;;;;;;9.88;6.43;;;0.90;99.90;;;;;;4996211;28;20037;-49
2023/03/17 01:17:47;;;;;;;11.77;6.97;;;0.90;99.90;;;;;;4996001;28;20092;-53
2023/03/17 01:20:26;;;;;;;9.90;7.22;;;0.80;99.90;;;;;;4996093;28;20105;-49
2023/03/17 01:22:52;;;;;;;11.45;7.22;;;0.80;99.90;;;;;;4995779;28;20100;-53
2023/03/17 01:25:18;;;;;;;9.02;6.05;;;0.80;99.90;;;;;;4995811;28;20030;-49
2023/03/17 01:27:46;;;;;;;12.70;7.07;;;0.90;99.90;;;;;;4995644;28;20084;-50
2023/03/17 01:30:31;;;;;;;11.40;6.53;;;0.80;99.90;;;;;;4995848;28;20026;-49
2023/03/17 01:32:58;;;;;;;7.55;6.75;;;0.80;99.90;;;;;;4995841;28;20050;-47
2023/03/17 01:35:26;;;;;;;9.88;6.47;;;0.80;99.90;;;;;;4995750;28;20030;-49
2023/03/17 01:37:52;;;;;;;14.63;7.30;;;0.80;99.90;;;;;;4995334;28;20034;-52
2023/03/17 01:40:24;;;;;;;6.93;6.10;;;0.80;99.90;;;;;;4995754;28;20034;-50
2023/03/17 01:43:17;;;;;;;17.38;6.82;;;0.70;99.90;;;;;;4995369;28;20080;-51
2023/03/17 01:46:20;;;;;;;11.38;7.28;;;0.70;99.90;;;;;;4995042;28;20042;-52
2023/03/17 01:48:53;;;;;;;8.25;6.53;;;0.70;99.90;;;;;;4995223;28;20035;-50
2023/03/17 01:51:30;;;;;;;10.85;7.35;;;0.70;1.00;;;;;;4995329;28;20064;-51
2023/03/17 01:54:02;;;;;;;13.90;7.82;;;0.70;1.00;;;;;;4995444;28;20018;-49
2023/03/17 01:56:29;;;;;;;14.20;7.88;;;0.60;1.00;;;;;;4995150;28;20033;-49
2023/03/17 01:58:55;;;;;;;12.57;6.47;;;0.50;1.00;;;;;;4995152;28;20053;-49
2023/03/17 02:01:27;;;;;;;12.43;6.60;;;0.50;1.00;;;;;;4995367;28;20027;-52
2023/03/17 02:03:54;;;;;;;11.43;6.30;;;0.50;1.00;;;;;;4994993;28;20543;-49
2023/03/17 02:06:21;;;;;;;11.40;6.57;;;0.50;1.00;;;;;;4994919;28;20109;-48
2023/03/17 02:08:46;;;;;;;12.38;6.60;;;0.50;1.00;;;;;;4994879;28;20425;-50
2023/03/17 02:11:13;;;;;;;15.15;7.15;;;0.50;1.00;;;;;;4995022;28;20030;-50
2023/03/17 02:13:40;;;;;;;14.57;6.40;;;0.40;1.00;;;;;;4994835;28;20034;-49
2023/03/17 02:16:06;;;;;;;8.45;6.38;;;0.40;1.00;;;;;;4994991;28;20426;-51
2023/03/17 02:18:32;;;;;;;10.77;6.78;;;0.40;1.00;;;;;;4994824;28;20038;-51
2023/03/17 02:21:27;;;;;;;12.05;6.30;;;0.40;1.00;;;;;;4994967;28;20030;-53
2023/03/17 02:23:52;;;;;;;;;;;0.40;1.00;;;;;;4995001;28;20030;-53
2023/03/17 02:26:21;;;;;;;9.95;6.85;;;0.40;1.00;;;;;;4994863;28;19906;-50
2023/03/17 02:28:47;;;;;;;9.02;6.95;;;0.40;1.00;;;;;;4994449;28;20054;-54
2023/03/17 02:31:13;;;;;;;10.27;7.30;;;0.40;1.00;;;;;;4994624;28;20022;-53
2023/03/17 02:33:39;;;;;;;14.25;7.10;;;0.30;1.00;;;;;;4994425;28;20054;-49
2023/03/17 02:36:05;;;;;;;10.18;7.35;;;0.30;1.00;;;;;;4994497;28;20461;-52
2023/03/17 02:38:30;;;;;;;11.20;6.55;;;0.40;1.00;;;;;;4994620;28;20037;-51
2023/03/17 02:40:56;;;;;;;8.25;6.80;;;0.40;1.00;;;;;;4994496;28;20018;-50
2023/03/17 02:43:22;;;;;;;11.85;7.35;;;0.40;1.00;;;;;;4994314;28;20053;-52
2023/03/17 02:45:47;;;;;;;11.13;6.32;;;0.40;1.00;;;;;;4994291;28;20033;-49
2023/03/17 02:48:13;;;;;;;12.00;6.90;;;0.40;1.00;;;;;;4994335;28;20117;-49
2023/03/17 02:50:39;;;;;;;10.05;6.80;;;0.30;1.00;;;;;;4993840;28;20022;-47
2023/03/17 02:53:06;;;;;;;13.65;7.05;;;0.30;1.00;;;;;;4994008;28;20101;-53
2023/03/17 02:55:32;;;;;;;9.90;7.07;;;0.20;1.00;;;;;;4993953;28;20034;-52
2023/03/17 02:57:57;;;;;;;9.50;7.00;;;0.20;1.00;;;;;;4994097;28;20053;-50
2023/03/17 03:00:23;;;;;;;9.65;6.63;;;0.20;1.00;;;;;;4994099;28;20361;-49
2023/03/17 03:02:49;;;;;;;16.27;6.90;;;0.20;1.00;;;;;;4993842;28;20062;-49
2023/03/17 03:05:15;;;;;;;8.45;6.72;;;0.20;1.00;;;;;;4993969;28;20085;-49
2023/03/17 03:07:41;;;;;;;10.15;7.80;;;0.20;1.00;;;;;;4994080;28;20101;-51
2023/03/17 03:10:08;;;;;;;11.52;7.90;;;0.20;1.00;;;;;;4993933;28;20031;-53
2023/03/17 03:12:34;;;;;;;13.07;6.90;;;0.20;1.00;;;;;;4993762;28;20449;-53
2023/03/17 03:14:59;;;;;;;8.52;6.55;;;0.20;1.00;;;;;;4993886;28;20030;-54
2023/03/17 03:17:25;;;;;;;11.45;7.28;;;0.20;1.00;;;;;;4993417;28;20038;-55
2023/03/17 03:19:51;;;;;;;11.00;6.75;;;0.20;1.00;;;;;;4993050;28;20036;-51
2023/03/17 03:22:16;;;;;;;9.70;6.60;;;0.20;1.00;;;;;;4993314;28;20049;-52
2023/03/17 03:24:42;;;;;;;11.15;6.97;;;0.10;1.00;;;;;;4992877;28;20035;-52
2023/03/17 03:27:08;;;;;;;10.02;6.97;;;0.10;1.00;;;;;;4993250;28;20034;-49
2023/03/17 03:29:34;;;;;;;14.00;7.05;;;0.10;1.00;;;;;;4993693;28;20053;-49
2023/03/17 03:32:00;;;;;;;9.35;7.07;;;0.10;1.00;;;;;;4993756;28;20018;-50
2023/03/17 03:34:26;;;;;;;14.27;6.65;;;0.10;1.00;;;;;;4993480;28;20026;-51
2023/03/17 03:36:52;;;;;;;12.88;7.78;;;0.10;1.00;;;;;;4993360;28;20030;-48
2023/03/17 03:39:18;;;;;;;12.13;8.45;;;0.10;1.00;;;;;;4993411;28;20165;-51
2023/03/17 03:41:44;;;;;;;13.07;7.68;;;0.10;1.00;;;;;;4993216;28;20037;-52
2023/03/17 03:44:09;;;;;;;9.13;7.13;;;0.10;1.00;;;;;;4993151;28;20382;-51
2023/03/17 03:46:35;;;;;;;9.50;7.13;;;0.10;1.00;;;;;;4993083;28;20113;-50
2023/03/17 03:49:01;;;;;;;13.20;6.75;;;0.10;1.00;;;;;;4991891;28;20054;-49
2023/03/17 03:51:26;;;;;;;13.07;6.43;;;0.00;1.00;;;;;;4993233;28;20500;-52
2023/03/17 03:53:52;;;;;;;13.48;7.25;;;0.10;1.00;;;;;;4992878;28;20026;-49
2023/03/17 03:56:17;;;;;;;10.70;6.45;;;0.00;1.00;;;;;;4993067;28;20053;-51
2023/03/17 03:58:43;;;;;;;12.98;8.63;;;0.00;1.00;;;;;;4993028;28;20026;-51
2023/03/17 04:01:09;;;;;;;11.48;8.15;;;0.10;1.00;;;;;;4992810;28;20034;-51
2023/03/17 04:03:36;;;;;;;12.82;7.13;;;0.00;1.00;;;;;;4992742;28;20474;-48
2023/03/17 04:06:02;;;;;;;9.70;7.20;;;0.00;1.00;;;;;;4992921;28;20031;-52
2023/03/17 04:08:28;;;;;;;8.93;6.82;;;0.00;1.00;;;;;;4992875;28;20077;-52
2023/03/17 04:10:53;;;;;;;13.18;6.93;;;0.00;1.00;;;;;;4992747;28;20165;-50
2023/03/17 04:13:19;;;;;;;9.25;7.15;;;0.00;1.00;;;;;;4992941;28;20533;-51
2023/03/17 04:15:45;;;;;;;9.25;7.00;;;0.00;1.00;;;;;;4992525;28;20513;-47
2023/03/17 04:18:10;;;;;;;10.02;7.65;;;0.00;1.00;;;;;;4992785;28;20027;-53
2023/03/17 04:20:37;;;;;;;14.35;7.40;;;0.00;1.00;;;;;;4992449;28;20062;-48
2023/03/17 04:23:03;;;;;;;9.70;6.45;;;0.00;1.00;;;;;;4992675;28;20485;-52
2023/03/17 04:25:29;;;;;;;7.18;6.20;;;-0.10;1.00;;;;;;4992558;28;20076;-50
2023/03/17 04:27:54;;;;;;;9.80;6.32;;;-0.10;1.00;;;;;;4992343;28;20398;-51
2023/03/17 04:30:20;;;;;;;9.90;6.97;;;-0.10;1.00;;;;;;4990398;28;20547;-51
2023/03/17 04:32:46;;;;;;;16.55;6.93;;;0.00;1.00;;;;;;4991124;28;20054;-48
2023/03/17 04:35:17;;;;;;;13.05;7.63;;;0.00;1.00;;;;;;4992428;28;20026;-49
2023/03/17 04:37:43;;;;;;;8.30;6.53;;;0.00;1.00;;;;;;4992426;28;20424;-47
2023/03/17 04:40:11;;;;;;;10.55;6.43;;;0.00;1.00;;;;;;4992414;28;20112;-52
2023/03/17 04:42:38;;;;;;;9.80;6.47;;;0.10;1.00;;;;;;4992199;28;20031;-55
2023/03/17 04:45:05;;;;;;;10.48;7.10;;;0.00;1.00;;;;;;4992037;28;20034;-52
2023/03/17 04:47:31;;;;;;;11.98;6.63;;;-0.10;1.00;;;;;;4991700;28;20733;-53
2023/03/17 04:49:57;;;;;;;13.93;7.63;;;-0.10;1.00;;;;;;4992021;28;20393;-51
2023/03/17 04:52:22;;;;;;;23.30;6.88;;;0.00;1.00;;;;;;4991999;28;20018;-48
2023/03/17 04:54:48;;;;;;;9.38;6.80;;;0.00;1.00;;;;;;4991946;28;20502;-49
2023/03/17 04:57:14;;;;;;;14.18;6.03;;;0.00;1.00;;;;;;4991764;28;20026;-47
2023/03/17 04:59:39;;;;;;;8.77;6.60;;;-0.10;1.00;;;;;;4991129;28;20061;-49
2023/03/17 05:02:06;;;;;;;8.15;6.43;;;-0.10;1.00;;;;;;4991504;28;20034;-48
2023/03/17 05:04:31;;;;;;;11.70;7.28;;;0.00;1.00;;;;;;4991214;28;20061;-52
2023/03/17 05:06:57;;;;;;;8.35;6.82;;;0.00;1.00;;;;;;4991935;28;20019;-49
2023/03/17 05:09:24;;;;;;;8.65;6.30;;;-0.10;1.00;;;;;;4992180;28;20069;-51
2023/03/17 05:11:50;;;;;;;11.68;7.53;;;-0.10;1.00;;;;;;4992041;28;20026;-50
2023/03/17 05:14:16;;;;;;;11.32;6.57;;;-0.10;1.00;;;;;;4991988;28;20021;-49
2023/03/17 05:16:42;;;;;;;10.35;6.80;;;-0.10;1.00;;;;;;4992028;28;20030;-50
2023/03/17 05:19:07;;;;;;;11.18;6.53;;;-0.20;1.00;;;;;;4992113;28;20014;-51
2023/03/17 05:21:33;;;;;;;9.35;7.50;;;-0.10;1.00;;;;;;4991967;28;20057;-49
2023/03/17 05:23:59;;;;;;;11.40;7.63;;;-0.20;1.00;;;;;;4991934;28;20041;-51
2023/03/17 05:26:24;;;;;;;35.42;10.18;;;-0.20;1.00;;;;;;4992033;28;20453;-48
2023/03/17 05:28:51;;;;;;;17.63;7.90;;;-0.20;1.00;;;;;;4991778;28;20071;-48
2023/03/17 05:31:17;;;;;;;10.20;7.25;;;-0.20;1.00;;;;;;4990616;28;20022;-49
2023/03/17 05:34:08;;;;;;;14.02;7.13;;;-0.20;1.00;;;;;;4991719;28;20422;-49
2023/03/17 05:36:35;;;;;;;10.93;6.97;;;-0.20;1.00;;;;;;4991848;28;20054;-52
2023/03/17 05:39:02;;;;;;;12.35;8.32;;;-0.20;1.00;;;;;;4990599;28;20117;-49
2023/03/17 05:41:28;;;;;;;8.30;7.10;;;-0.10;1.00;;;;;;4992587;28;20110;-46
2023/03/17 05:43:55;;;;;;;8.73;6.97;;;-0.20;1.00;;;;;;4995302;28;20173;-51
2023/03/17 05:46:21;;;;;;;12.23;6.95;;;-0.10;1.00;;;;;;4995335;28;20058;-51
2023/03/17 05:48:47;;;;;;;8.07;7.25;;;-0.10;1.00;;;;;;4995361;28;20019;-51
2023/03/17 05:51:13;;;;;;;10.10;6.80;;;0.00;1.00;;;;;;4995152;28;20088;-52
2023/03/17 05:53:39;;;;;;;10.55;6.45;;;0.00;1.00;;;;;;4990486;28;20019;-48
2023/03/17 05:56:05;;;;;;;10.73;8.18;;;0.10;1.00;;;;;;4992867;28;20026;-48
2023/03/17 05:58:31;;;;;;;8.75;7.25;;;0.10;1.00;;;;;;4994899;28;20374;-50
2023/03/17 06:00:56;;;;;;;11.45;7.43;;;0.10;1.00;;;;;;4995236;28;20072;-52
2023/03/17 06:03:22;;;;;;;35.65;8.90;;;0.20;1.00;;;;;;4994698;28;20027;-49
2023/03/17 06:06:06;;;;;;;16.05;6.88;;;0.30;1.00;;;;;;4995025;28;20034;-51
2023/03/17 06:08:32;;;;;;;14.48;6.53;;;0.30;1.00;;;;;;4994904;28;20033;-52
2023/03/17 06:10:57;;;;;;;9.75;7.32;;;0.40;1.00;;;;;;4994879;28;20027;-50
2023/03/17 06:13:23;;;;;;;14.10;7.15;;;0.50;1.00;;;;;;4994575;28;20030;-49
2023/03/17 06:15:51;;;;;;;12.13;7.63;;;0.60;1.00;;;;;;4994720;28;20030;-48
2023/03/17 06:18:18;;;;;;;13.45;6.68;;;0.60;1.00;;;;;;4994736;28;20039;-56
2023/03/17 06:20:44;;;;;;;12.55;7.78;;;0.70;1.00;;;;;;4994607;28;20030;-48
2023/03/17 06:23:10;;;;;;;8.43;6.53;;;0.80;99.90;;;;;;4994852;28;20026;-49
2023/03/17 06:25:35;;;;;;;11.75;6.80;;;0.90;99.90;;;;;;4994294;28;20109;-55
2023/03/17 06:28:04;;;;;;;9.20;6.25;;;1.00;99.90;;;;;;4993159;28;20128;-53
2023/03/17 06:30:32;;;;;;;10.05;6.80;;;1.00;99.90;;;;;;4994544;28;20110;-50
2023/03/17 06:32:58;;;;;;;8.85;6.05;;;1.00;99.90;;;;;;4994599;28;20025;-49
2023/03/17 06:35:24;;;;;;;7.25;5.90;;;1.00;99.90;;;;;;4994665;28;20046;-52
2023/03/17 06:37:50;;;;;;;12.38;7.32;;;1.10;99.90;;;;;;4994430;28;20120;-49
2023/03/17 06:40:16;;;;;;;16.85;6.38;;;1.20;99.90;;;;;;4994448;28;20022;-53
2023/03/17 06:42:42;;;;;;;12.80;7.00;;;1.30;99.90;;;;;;4994252;28;20031;-53
2023/03/17 06:45:08;;;;;;;12.52;6.32;;;1.30;99.90;;;;;;4994259;28;20026;-52
2023/03/17 06:47:36;;;;;;;10.40;6.28;;;1.40;99.90;;;;;;4993759;28;20027;-50
2023/03/17 06:50:02;;;;;;;8.07;6.38;;;1.40;99.90;;;;;;4994394;28;20134;-50
2023/03/17 06:52:28;;;;;;;11.07;6.90;;;1.40;99.90;;;;;;4994285;28;20024;-49
2023/03/17 06:54:54;;;;;;;9.63;6.15;;;1.50;93.90;;;;;;4993290;28;20138;-49
2023/03/17 06:57:20;;;;;;;19.48;7.57;;;1.60;1.00;;;;;;4994774;28;20085;-52
2023/03/17 06:59:45;;;;;;;10.65;6.10;;;1.60;1.00;;;;;;4994552;28;20030;-54
2023/03/17 07:02:11;;;;;;;9.07;6.47;;;1.70;1.00;;;;;;5000654;28;20022;-56
2023/03/17 07:04:37;;;;;;;10.95;6.70;;;1.70;1.00;;;;;;4994426;28;20587;-50
2023/03/17 07:07:05;;;;;;;13.10;5.57;;;1.80;99.90;;;;;;4996691;28;20631;-52
2023/03/17 07:09:33;;;;;;;10.18;6.45;;;2.00;99.90;;;;;;4993683;28;20172;-57
2023/03/17 07:12:03;;;;;;;14.75;5.85;;;2.00;31.30;;;;;;4992919;28;20030;-57
2023/03/17 07:14:31;;;;;;;9.25;7.38;;;2.10;1.00;;;;;;4994333;28;20022;-53
2023/03/17 07:16:57;;;;;;;9.48;6.78;;;2.20;1.00;;;;;;4995210;28;20085;-49
2023/03/17 07:19:22;;;;;;;13.60;6.28;;;2.30;1.00;;;;;;4994273;28;20062;-52
2023/03/17 07:21:48;;;;;;;12.35;6.43;;;2.40;1.00;;;;;;4994058;28;20038;-52
2023/03/17 07:24:14;;;;;;;8.77;7.05;;;2.60;1.00;;;;;;4992877;28;20027;-53
2023/03/17 07:26:39;;;;;;;11.27;6.22;;;2.70;1.00;;;;;;4993325;28;20033;-52
2023/03/17 07:29:07;;;;;;;18.13;6.32;;;2.90;99.90;;;;;;4992608;28;20026;-54
2023/03/17 07:31:32;;;;;;;16.27;7.03;;;2.90;99.90;;;;;;4992717;28;20018;-55
2023/03/17 07:33:58;;;;;;;17.05;7.15;;;3.00;99.90;;;;;;4991970;28;20113;-53
2023/03/17 07:36:24;;;;;;;7.28;5.80;;;3.10;99.90;;;;;;4991569;28;20026;-54
2023/03/17 07:39:05;;;;;;;7.40;5.90;;;3.10;99.90;;;;;;4991480;28;20034;-52
2023/03/17 07:41:30;;;;;;;12.52;6.07;;;3.30;99.90;;;;;;4993158;28;20030;-53
2023/03/17 07:43:56;;;;;;;13.50;6.22;;;3.40;99.90;;;;;;4992714;28;20081;-52
2023/03/17 07:49:51;;;;;;;11.25;5.82;;;3.80;67.10;;;;;;4992538;28;20042;-52
2023/03/17 07:52:16;;;;;;;9.40;5.05;;;4.20;1.00;;;;;;4992581;28;20018;-56
2023/03/17 07:54:43;;;;;;;13.32;5.72;;;4.10;99.90;;;;;;4991937;28;20054;-53
2023/03/17 07:57:09;;;;;;;14.93;6.72;;;4.30;1.00;;;;;;4992156;28;20026;-52
2023/03/17 07:59:37;;;;;;;10.68;7.18;;;4.40;99.90;;;;;;4992089;28;20037;-51
2023/03/17 08:02:02;;;;;;;11.57;5.97;;;4.60;99.90;;;;;;4992633;28;20027;-54
2023/03/17 08:05:24;;;;;;;12.77;5.72;;;4.70;99.90;;;;;;4991696;28;20041;-47
2023/03/17 08:07:50;;;;;;;15.48;5.45;;;4.80;99.90;;;;;;4991778;28;20097;-52
2023/03/17 08:10:17;;;;;;;9.18;5.28;;;4.90;1.00;;;;;;4992266;28;20435;-50
2023/03/17 08:12:43;;;;;;;11.77;5.18;;;4.90;99.90;;;;;;4992405;28;20015;-49
2023/03/17 08:15:09;;;;;;;6.15;5.05;;;5.20;1.00;;;;;;4992581;28;20373;-51
2023/03/17 08:17:36;;;;;;;13.13;5.28;;;5.30;99.90;;;;;;4991146;28;20030;-52
2023/03/17 08:20:03;;;;;;;10.45;5.13;;;5.40;99.90;;;;;;4992355;28;20125;-50
2023/03/17 08:22:29;;;;;;;10.27;5.63;;;5.60;1.00;;;;;;4992421;28;20026;-52
2023/03/17 08:24:55;;;;;;;8.10;5.57;;;5.50;99.90;;;;;;4990831;28;20389;-53
2023/03/17 08:27:21;;;;;;;9.30;5.18;;;5.70;99.90;;;;;;4991102;28;20050;-51
2023/03/17 08:29:47;;;;;;;9.13;5.10;;;5.80;99.90;;;;;;4991894;28;20117;-51
2023/03/17 08:32:12;;;;;;;10.95;6.50;;;5.80;99.90;;;;;;4992139;28;20011;-53
2023/03/17 08:34:38;;;;;;;12.88;5.30;;;5.80;99.90;;;;;;4991390;28;20038;-50
2023/03/17 08:37:05;;;;;;;17.60;5.95;;;5.80;99.90;;;;;;4990954;28;20382;-52
2023/03/17 08:39:31;;;;;;;10.95;5.65;;;5.90;99.90;;;;;;4990538;28;20393;-54
2023/03/17 08:41:56;;;;;;;10.90;5.05;;;5.90;99.90;;;;;;4991861;28;20035;-50
2023/03/17 08:44:22;;;;;;;7.38;4.80;;;6.00;99.90;;;;;;4991816;28;20485;-48
2023/03/17 08:46:49;;;;;;;12.32;4.78;;;6.20;99.90;;;;;;4991425;28;20113;-53
2023/03/17 08:49:15;;;;;;;7.93;5.72;;;6.40;99.90;;;;;;4992084;28;20037;-50
2023/03/17 08:51:41;;;;;;;6.93;5.10;;;6.50;1.00;;;;;;4992580;28;20022;-50
2023/03/17 08:54:06;;;;;;;15.98;6.20;;;6.50;99.90;;;;;;4991292;28;20030;-54
2023/03/17 08:56:32;;;;;;;10.45;5.03;;;6.50;99.90;;;;;;4992202;28;20034;-48
2023/03/17 08:58:58;;;;;;;6.63;4.50;;;6.70;99.90;;;;;;4991956;28;20031;-50
2023/03/17 09:01:26;;;;;;;9.50;4.93;;;6.80;99.90;;;;;;4991672;28;20573;-49
2023/03/17 09:03:57;;;;;;;7.10;4.20;;;6.70;1.00;;;;;;4992463;28;20703;-49
2023/03/17 09:06:25;;;;;;;7.28;4.97;;;6.90;20.00;;;;;;4992232;28;20362;-50
2023/03/17 09:08:54;;;;;;;6.00;4.65;;;6.90;1.00;;;;;;4991950;28;20098;-50
2023/03/17 09:11:27;;;;;;;12.55;4.80;;;6.90;1.00;;;;;;4991524;28;20027;-53
2023/03/17 09:13:54;;;;;;;6.28;4.43;;;7.20;1.00;;;;;;4991393;28;20022;-51
2023/03/17 09:16:22;;;;;;;18.63;12.30;;;7.20;99.90;;;;;;4992494;28;20023;-51
2023/03/17 09:18:48;;;;;;;6.40;5.55;;;7.20;99.90;;;;;;4995694;28;20065;-49
2023/03/17 09:21:15;;;;;;;7.20;5.65;;;7.10;1.00;;;;;;4995214;28;20478;-49
2023/03/17 09:23:45;;;;;;;6.68;5.03;;;7.40;65.70;;;;;;4997404;28;20026;-54
2023/03/17 09:26:11;;;;;;;11.80;5.28;;;7.40;82.70;;;;;;4996744;28;20442;-49
2023/03/17 09:28:37;;;;;;;11.40;5.75;;;7.70;1.00;;;;;;4994959;28;20122;-51
2023/03/17 09:31:05;;;;;;;7.90;4.50;;;7.90;1.00;;;;;;4996020;28;20027;-49
2023/03/17 09:33:30;;;;;;;9.30;4.40;;;8.00;1.00;;;;;;4995444;28;20085;-53
2023/03/17 09:35:56;;;;;;;13.38;4.75;;;8.20;11.70;;;;;;4994045;28;20417;-52
2023/03/17 09:38:24;;;;;;;6.53;4.55;;;8.40;99.90;;;;;;4995613;28;20540;-50
2023/03/17 09:41:11;;;;;;;6.20;5.07;;;8.60;1.00;;;;;;4995269;28;20044;-52
2023/03/17 09:43:43;;;;;;;9.48;5.13;;;8.50;99.90;;;;;;4995608;28;20039;-55
2023/03/17 09:46:43;;;;;;;9.77;5.35;;;8.40;99.90;;;;;;4995282;28;20413;-52
2023/03/17 09:49:19;;;;;;;11.95;5.18;;;8.50;1.00;;;;;;4995166;28;20026;-54
2023/03/17 09:51:46;;;;;;;8.93;5.20;;;8.80;99.90;;;;;;4995565;28;20076;-55
2023/03/17 09:54:22;;;;;;;11.73;5.45;;;8.90;99.90;;;;;;4995228;28;20030;-52
2023/03/17 09:56:53;;;;;;;10.15;5.47;;;9.10;92.10;;;;;;4994702;28;20037;-55
2023/03/17 09:59:19;;;;;;;8.02;5.70;;;9.20;17.70;;;;;;4995033;28;20057;-54
2023/03/17 10:01:45;;;;;;;15.00;6.88;;;9.20;1.00;;;;;;4993592;28;20034;-54
2023/03/17 10:04:11;;;;;;;8.25;4.65;;;9.50;84.30;;;;;;4994954;28;20031;-53
2023/03/17 10:06:43;;;;;;;6.97;4.15;;;9.80;99.90;;;;;;4994986;28;20069;-56
2023/03/17 10:09:21;;;;;;;8.25;4.38;;;9.90;1.00;;;;;;4996012;28;20015;-55
2023/03/17 10:12:06;;;;;;;6.78;4.78;;;9.90;1.00;;;;;;4994874;28;20712;-54
2023/03/17 10:14:49;;;;;;;7.72;4.80;;;10.10;1.00;;;;;;4994563;28;20026;-54
2023/03/17 10:17:15;;;;;;;8.40;5.20;;;10.00;99.90;;;;;;4994564;28;20022;-57
2023/03/17 10:19:51;;;;;;;8.68;4.65;;;10.20;99.90;;;;;;4994938;28;20350;-54
2023/03/17 10:22:45;;;;;;;8.43;4.70;;;10.70;99.90;;;;;;4994741;28;20034;-57
2023/03/17 10:25:20;;;;;;;14.07;4.25;;;10.90;99.90;;;;;;4995798;28;20109;-54
2023/03/17 10:28:07;;;;;;;10.05;5.07;;;10.60;99.90;;;;;;4993625;28;20051;-54
2023/03/17 10:30:33;;;;;;;6.43;4.40;;;10.60;1.00;;;;;;4993589;28;20019;-56
2023/03/17 10:33:01;;;;;;;14.07;5.43;;;10.60;1.00;;;;;;4994281;28;20073;-53
2023/03/17 10:35:28;;;;;;;7.35;4.82;;;10.50;1.00;;;;;;4996173;28;20032;-53
2023/03/17 10:37:54;;;;;;;6.30;4.63;;;10.70;1.00;;;;;;4993921;28;20033;-56
2023/03/17 10:40:24;;;;;;;9.23;4.32;;;10.90;1.00;;;;;;4994360;28;20616;-53
2023/03/17 10:42:59;;;;;;;6.15;3.80;;;11.00;1.00;;;;;;4994618;28;20030;-56
2023/03/17 10:45:31;;;;;;;6.45;4.82;;;11.40;49.30;;;;;;4993256;28;20105;-54
2023/03/17 10:47:59;;;;;;;17.23;5.95;;;11.90;1.00;;;;;;4974626;28;20050;-54
2023/03/17 10:50:31;;;;;;;7.00;4.15;;;12.20;1.00;;;;;;4973950;28;20094;-53
2023/03/17 10:52:59;;;;;;;13.43;4.63;;;12.50;1.00;;;;;;4973981;28;20027;-56
2023/03/17 10:55:32;;;;;;;14.73;4.63;;;13.80;99.90;;;;;;4974547;28;20034;-57
2023/03/17 10:58:16;;;;;;;5.97;4.60;;;14.00;99.90;;;;;;4974543;28;20482;-54
2023/03/17 11:00:59;;;;;;;8.63;4.32;;;14.30;99.90;;;;;;4974370;28;20031;-55
2023/03/17 11:03:30;;;;;;;7.53;3.95;;;15.70;99.90;;;;;;4974534;28;20479;-54
2023/03/17 11:06:01;;;;;;;8.13;3.67;;;17.00;81.10;;;;;;4974281;28;20046;-52
2023/03/17 11:08:32;;;;;;;9.93;3.20;;;17.70;1.00;;;;;;4974580;28;20399;-53
2023/03/17 11:10:58;;;;;;;5.18;3.70;;;18.30;23.30;;;;;;4974492;28;20640;-54
2023/03/17 11:13:29;;;;;;;8.10;3.72;;;19.00;1.00;;;;;;4974361;28;20101;-54
2023/03/17 11:16:22;;;;;;;10.93;4.22;;;19.00;1.00;;;;;;4973952;28;20065;-52
2023/03/17 11:18:52;;;;;;;8.00;3.78;;;19.00;1.00;;;;;;4966491;28;20043;-48
2023/03/17 11:21:30;;;;;;;6.03;3.53;;;18.80;1.00;;;;;;4974244;28;20027;-54
2023/03/17 11:24:11;;;;;;;8.07;3.60;;;19.20;1.00;;;;;;4973861;28;20359;-51
2023/03/17 11:26:42;;;;;;;5.07;3.78;;;19.90;1.00;;;;;;4973840;28;20023;-54
2023/03/17 11:29:31;;;;;;;7.65;4.45;;;20.10;1.00;;;;;;4974082;28;20101;-55
2023/03/17 11:32:03;;;;;;;7.22;4.13;;;20.20;1.00;;;;;;4973633;28;20027;-52
2023/03/17 11:34:41;;;;;;;9.27;3.17;;;19.70;1.00;;;;;;4973451;28;20067;-56
2023/03/17 11:37:50;;;;;;;8.48;4.13;;;19.60;1.00;;;;;;4973517;28;20421;-52
2023/03/17 11:40:42;;;;;;;8.10;3.20;;;20.20;1.00;;;;;;4972418;28;20471;-55
2023/03/17 11:43:17;;;;;;;5.50;3.22;;;20.50;1.00;;;;;;4973173;28;20027;-55
2023/03/17 11:45:55;;;;;;;9.95;6.47;;;20.50;1.00;;;;;;4972992;28;20034;-54
2023/03/17 11:48:48;;;;;;;14.27;8.25;;;20.20;1.00;;;;;;4973369;28;20023;-53
2023/03/17 11:51:20;;;;;;;;;;;20.50;1.00;;;;;;4974047;28;20050;-55
2023/03/17 11:54:19;;;;;;;4.78;3.03;;;21.20;1.00;;;;;;4973275;28;19913;-49
2023/03/17 11:56:49;;;;;;;6.00;3.50;;;21.90;1.00;;;;;;4973021;28;20030;-52
2023/03/17 11:59:19;;;;;;;11.75;3.42;;;20.70;1.00;;;;;;4972890;28;20114;-51
2023/03/17 12:02:00;;;;;;;11.20;3.08;;;21.20;1.00;;;;;;4972565;28;20512;-48
2023/03/17 12:04:33;;;;;;;9.98;3.60;;;21.40;1.00;;;;;;4972977;28;20119;-56
2023/03/17 12:07:24;;;;;;;7.93;3.30;;;21.20;1.00;;;;;;4973123;28;20026;-53
2023/03/17 12:10:12;;;;;;;14.32;4.00;;;21.00;1.00;;;;;;4972775;28;20030;-53
2023/03/17 12:12:43;;;;;;;11.02;3.30;;;20.30;1.00;;;;;;4973191;28;20057;-54
2023/03/17 12:15:17;;;;;;;5.22;3.85;;;19.80;1.00;;;;;;4973060;28;20126;-52
2023/03/17 12:17:55;;;;;;;6.22;3.75;;;19.60;1.00;;;;;;4972850;28;20034;-50
2023/03/17 12:20:31;;;;;;;11.75;4.85;;;19.50;1.00;;;;;;4973214;28;20566;-53
2023/03/17 12:23:00;;;;;;;15.40;3.40;;;20.20;1.00;;;;;;4972960;28;20033;-52
2023/03/17 12:25:56;;;;;;;7.90;3.70;;;20.20;1.00;;;;;;4973080;28;20030;-55
2023/03/17 12:28:29;;;;;;;4.53;3.15;;;21.30;1.00;;;;;;4972846;28;20097;-49
2023/03/17 12:30:58;;;;;;;6.07;3.40;;;21.30;1.00;;;;;;4971243;28;20370;-53
2023/03/17 12:33:54;;;;;;;9.02;3.53;;;20.80;1.00;;;;;;4972723;28;20674;-49
2023/03/17 12:36:21;;;;;;;5.05;3.40;;;20.70;1.00;;;;;;4972590;28;20027;-51
2023/03/17 12:39:08;;;;;;;5.60;3.28;;;21.00;1.00;;;;;;4972729;28;20011;-52
2023/03/17 12:41:58;;;;;;;7.40;3.80;;;19.90;1.00;;;;;;4972433;28;20027;-50
2023/03/17 12:45:08;;;;;;;3.85;2.63;;;19.50;1.00;;;;;;4972321;28;20018;-52
2023/03/17 12:47:36;;;;;;;5.75;3.45;;;19.30;1.00;;;;;;4972344;28;20019;-50
2023/03/17 12:50:20;;;;;;;10.98;3.60;;;19.20;1.00;;;;;;4972627;28;20066;-55
2023/03/17 12:53:21;;;;;;;10.35;4.32;;;19.50;1.00;;;;;;4971858;28;20101;-51
2023/03/17 12:55:50;;;;;;;6.70;3.50;;;19.40;1.00;;;;;;4972606;28;20027;-51
2023/03/17 12:58:35;;;;;;;7.22;3.00;;;20.00;1.00;;;;;;4972329;28;20027;-51
2023/03/17 13:01:23;;;;;;;12.82;3.65;;;20.10;1.00;;;;;;4972381;28;20394;-52
2023/03/17 13:04:22;;;;;;;8.40;3.33;;;20.00;1.00;;;;;;4970973;28;20490;-52
2023/03/17 13:07:22;;;;;;;7.20;3.08;;;20.10;1.00;;;;;;4971489;28;20529;-54
2023/03/17 13:09:53;;;;;;;7.95;3.30;;;19.20;1.00;;;;;;4972419;28;20106;-51
2023/03/17 13:12:41;;;;;;;6.93;3.30;;;19.10;1.00;;;;;;4972329;28;20031;-52
2023/03/17 13:15:37;;;;;;;11.43;3.83;;;19.30;1.00;;;;;;4972603;28;20023;-54